Impacts TAF Board
For situational awareness. Not to be used for flight planning purposes.
IDs:

KLGA - New York/La Guardia, NY, US

Issued at 0716 UTC 27 Feb 2020
Updated at 0823 UTC 27 Feb 2020
Potential Impact None Slight Moderate High
Time<<27/21Z 27/22Z 27/23Z 28/00Z 28/01Z 28/02Z 28/03Z 28/04Z 28/05Z 28/06Z 28/07Z 28/08Z 28/09Z>>
Type PRVL PRVL PRVL PRVL PRVL PRVL PRVL PRVL PRVL PRVL PRVL PRVL PRVL
VIS >6 >6 >6 >6 >6 >6 >6 >6 >6 >6 >6 >6 >6
CIG -- -- -- -- -- -- -- -- -- -- -- -- --
Cover SCT SCT SCT SCT SCT SCT FEW FEW FEW FEW FEW FEW FEW
FltCat VFR VFR VFR VFR VFR VFR VFR VFR VFR VFR VFR VFR VFR
WX -- -- -- -- -- -- -- -- -- -- -- -- --
WDir 270 270 270 270 270 270 270 270 270 270 260 260 260
WSpd 22 22 22 22 22 22 22 22 22 22 20 20 20
WGst 35 35 35 35 35 35 30 30 30 30 28 28 28
Raw TAF
KLGA 270716Z 2707/2812 06014G21KT 3SM SHRA BR BKN005 OVC010
  FM270900 11017G25KT 3SM SHRA BR BKN008 OVC010
  FM271000 22018G28KT 6SM BR VCSH BKN020
  FM271200 25020G32KT P6SM FEW030 BKN050
  FM271600 27022G35KT P6SM SCT050
  FM280300 27022G30KT P6SM FEW050
  FM280700 26020G28KT P6SM FEW050


METAR Board
Radar Display
Forecast Discussion
For situational awareness. Not to be used for flight planning purposes.